createdAt,value
2022-08-11T00:01:29.211Z,0.80
2022-08-11T00:04:03.716Z,0.60
2022-08-11T00:06:40.924Z,0.90
2022-08-11T00:09:11.610Z,0.70
2022-08-11T00:11:42.881Z,0.90
2022-08-11T00:14:37.813Z,0.93
2022-08-11T00:17:16.166Z,0.80
2022-08-11T00:20:13.260Z,0.70
2022-08-11T00:22:36.891Z,0.70
2022-08-11T00:25:16.595Z,0.80
2022-08-11T00:27:43.976Z,0.80
2022-08-11T00:30:13.619Z,0.80
2022-08-11T00:32:53.539Z,0.93
2022-08-11T00:35:55.089Z,0.90
2022-08-11T00:38:15.764Z,0.80
2022-08-11T00:40:51.606Z,0.65
2022-08-11T00:43:44.239Z,0.65
2022-08-11T00:46:29.499Z,0.77
2022-08-11T00:49:31.918Z,0.80
2022-08-11T00:52:13.983Z,0.50
2022-08-11T00:55:03.050Z,0.90
2022-08-11T00:58:11.002Z,0.73
2022-08-11T01:00:56.495Z,0.70
2022-08-11T01:04:02.400Z,0.70
2022-08-11T01:07:06.877Z,0.70
2022-08-11T01:10:07.718Z,0.80
2022-08-11T01:12:45.581Z,0.90
2022-08-11T01:15:36.368Z,0.70
2022-08-11T01:18:40.483Z,0.75
2022-08-11T01:21:21.002Z,0.70
2022-08-11T01:24:38.588Z,0.80
2022-08-11T01:27:19.252Z,0.68
2022-08-11T01:30:08.678Z,0.85
2022-08-11T01:32:44.641Z,0.70
2022-08-11T01:35:37.411Z,0.80
2022-08-11T01:38:25.333Z,0.90
2022-08-11T01:41:13.747Z,0.80
2022-08-11T01:44:26.016Z,0.70
2022-08-11T01:46:57.030Z,0.70
2022-08-11T01:52:43.211Z,1.10
2022-08-11T01:55:27.021Z,0.80
2022-08-11T01:58:02.947Z,0.90
2022-08-11T02:00:33.362Z,0.73
2022-08-11T02:03:36.804Z,0.80
2022-08-11T02:06:49.825Z,0.75
2022-08-11T02:09:34.857Z,0.70
2022-08-11T02:12:15.651Z,0.77
2022-08-11T02:15:11.548Z,0.90
2022-08-11T02:18:05.049Z,0.80
2022-08-11T02:21:07.499Z,0.68
2022-08-11T02:24:05.668Z,0.90
2022-08-11T02:26:40.261Z,0.70
2022-08-11T02:29:31.203Z,0.80
2022-08-11T02:32:30.689Z,0.80
2022-08-11T02:35:23.283Z,1.00
2022-08-11T02:38:25.711Z,0.93
2022-08-11T02:41:01.715Z,0.90
2022-08-11T02:43:51.149Z,0.88
2022-08-11T02:46:32.039Z,0.80
2022-08-11T02:49:23.315Z,0.90
2022-08-11T02:52:03.496Z,0.98
2022-08-11T02:54:54.467Z,1.00
2022-08-11T02:58:03.680Z,0.80
2022-08-11T03:00:42.692Z,0.70
2022-08-11T03:03:16.697Z,0.90
2022-08-11T03:06:05.432Z,0.77
2022-08-11T03:08:52.764Z,0.82
2022-08-11T03:11:58.024Z,1.00
2022-08-11T03:14:54.614Z,1.00
2022-08-11T03:17:54.702Z,0.70
2022-08-11T03:20:33.245Z,0.73
2022-08-11T03:23:29.787Z,0.98
2022-08-11T03:26:28.216Z,0.73
2022-08-11T03:29:35.910Z,0.90
2022-08-11T03:32:19.658Z,0.90
2022-08-11T03:34:49.040Z,0.98
2022-08-11T03:37:51.263Z,0.73
2022-08-11T03:40:52.138Z,0.90
2022-08-11T03:44:03.752Z,0.80
2022-08-11T03:46:46.349Z,0.90
2022-08-11T03:49:45.271Z,0.90
2022-08-11T03:52:24.069Z,1.00
2022-08-11T03:55:11.079Z,0.90
2022-08-11T03:58:05.514Z,0.90
2022-08-11T04:00:55.307Z,0.68
2022-08-11T04:03:53.581Z,0.82
2022-08-11T04:06:35.316Z,0.82
2022-08-11T04:09:26.712Z,0.90
2022-08-11T04:11:56.248Z,0.80
2022-08-11T04:15:08.562Z,0.60
2022-08-11T04:17:50.841Z,0.80
2022-08-11T04:21:00.453Z,0.65
2022-08-11T04:24:34.440Z,0.70
2022-08-11T04:26:51.263Z,0.68
2022-08-11T04:29:36.315Z,0.70
2022-08-11T04:32:54.904Z,0.70
2022-08-11T04:35:50.728Z,0.70
2022-08-11T04:38:55.826Z,0.80
2022-08-11T04:42:16.801Z,0.80
2022-08-11T04:45:02.024Z,0.77
2022-08-11T04:48:22.065Z,0.80
2022-08-11T04:51:41.306Z,0.60
2022-08-11T04:54:58.893Z,0.60
2022-08-11T04:58:10.345Z,0.98
2022-08-11T05:01:35.149Z,0.80
2022-08-11T05:04:29.881Z,1.25
2022-08-11T05:06:59.372Z,1.05
2022-08-11T05:09:42.193Z,0.82
2022-08-11T05:12:30.215Z,1.30
2022-08-11T05:15:17.907Z,1.23
2022-08-11T05:18:23.220Z,0.98
2022-08-11T05:21:12.796Z,0.90
2022-08-11T05:24:08.268Z,1.30
2022-08-11T05:27:06.121Z,1.10
2022-08-11T05:30:04.817Z,1.23
2022-08-11T05:33:02.077Z,1.10
2022-08-11T05:36:00.240Z,1.02
2022-08-11T05:38:52.032Z,1.02
2022-08-11T05:41:41.468Z,1.10
2022-08-11T05:44:29.281Z,0.88
2022-08-11T05:47:15.361Z,1.00
2022-08-11T05:50:01.058Z,1.40
2022-08-11T05:52:56.696Z,1.33
2022-08-11T05:56:01.952Z,1.20
2022-08-11T05:58:39.741Z,1.67
2022-08-11T06:01:09.985Z,1.60
2022-08-11T06:03:58.672Z,1.40
2022-08-11T06:06:28.518Z,1.20
2022-08-11T06:08:59.867Z,1.35
2022-08-11T06:11:44.293Z,1.25
2022-08-11T06:14:12.965Z,1.23
2022-08-11T06:16:42.160Z,1.27
2022-08-11T06:19:09.532Z,1.00
2022-08-11T06:21:37.111Z,1.60
2022-08-11T06:24:14.671Z,2.00
2022-08-11T06:27:09.154Z,1.90
2022-08-11T06:29:47.630Z,2.42
2022-08-11T06:32:16.787Z,2.30
2022-08-11T06:34:56.369Z,2.22
2022-08-11T06:37:36.203Z,2.00
2022-08-11T06:40:12.287Z,1.80
2022-08-11T06:42:48.517Z,1.85
2022-08-11T06:45:27.365Z,1.65
2022-08-11T06:47:56.850Z,1.70
2022-08-11T06:50:42.744Z,1.73
2022-08-11T06:53:10.908Z,1.50
2022-08-11T06:56:00.735Z,1.15
2022-08-11T06:58:50.063Z,1.27
2022-08-11T07:01:29.815Z,1.40
2022-08-11T07:04:05.921Z,1.30
2022-08-11T07:07:20.564Z,1.38
2022-08-11T07:10:23.107Z,1.17
2022-08-11T07:13:45.041Z,1.35
2022-08-11T07:16:13.327Z,1.00
2022-08-11T07:22:02.746Z,0.90
2022-08-11T07:25:15.813Z,1.00
2022-08-11T07:28:05.649Z,1.20
2022-08-11T07:30:37.914Z,0.90
2022-08-11T07:33:06.418Z,1.38
2022-08-11T07:36:08.731Z,1.00
2022-08-11T07:38:47.716Z,1.00
2022-08-11T07:41:17.013Z,1.00
2022-08-11T07:43:49.627Z,1.30
2022-08-11T07:46:36.911Z,1.10
2022-08-11T07:49:24.675Z,0.90
2022-08-11T07:52:11.694Z,1.08
2022-08-11T07:54:39.617Z,1.15
2022-08-11T07:57:45.048Z,1.10
2022-08-11T08:00:37.484Z,0.80
2022-08-11T08:03:25.131Z,0.90
2022-08-11T08:06:15.293Z,0.73
2022-08-11T08:09:17.766Z,1.48
2022-08-11T08:12:05.492Z,1.13
2022-08-11T08:14:53.019Z,0.88
2022-08-11T08:17:41.362Z,1.13
2022-08-11T08:20:12.402Z,1.92
2022-08-11T08:25:10.062Z,1.42
2022-08-11T08:27:39.010Z,1.42
2022-08-11T08:30:25.875Z,1.00
2022-08-11T08:32:56.208Z,1.10
2022-08-11T08:35:23.771Z,1.15
2022-08-11T08:37:53.019Z,0.90
2022-08-11T08:40:20.094Z,1.50
2022-08-11T08:42:52.024Z,1.00
2022-08-11T08:45:20.488Z,1.30
2022-08-11T08:48:16.444Z,1.02
2022-08-11T08:51:08.152Z,1.10
2022-08-11T08:53:39.809Z,1.60
2022-08-11T08:56:25.505Z,1.27
2022-08-11T08:58:52.865Z,1.20
2022-08-11T09:01:22.786Z,1.27
2022-08-11T09:04:05.304Z,1.75
2022-08-11T09:06:40.713Z,1.52
2022-08-11T09:09:09.327Z,1.00
2022-08-11T09:11:51.149Z,1.20
2022-08-11T09:14:51.670Z,1.08
2022-08-11T09:17:23.799Z,1.30
2022-08-11T09:20:01.614Z,1.75
2022-08-11T09:23:14.462Z,1.60
2022-08-11T09:25:56.397Z,1.25
2022-08-11T09:28:24.587Z,1.25
2022-08-11T09:30:56.323Z,1.15
2022-08-11T09:33:25.367Z,1.52
2022-08-11T09:35:53.420Z,1.00
2022-08-11T09:38:47.389Z,1.38
2022-08-11T09:41:16.482Z,1.40
2022-08-11T09:44:04.769Z,1.38
2022-08-11T09:46:33.532Z,1.20
2022-08-11T09:49:02.536Z,1.55
2022-08-11T09:51:34.098Z,1.40
2022-08-11T09:54:07.463Z,1.05
2022-08-11T09:56:53.640Z,1.13
2022-08-11T09:59:22.378Z,1.27
2022-08-11T10:01:57.839Z,1.40
2022-08-11T10:04:36.054Z,1.13
2022-08-11T10:07:10.801Z,1.30
2022-08-11T10:09:52.246Z,0.93
2022-08-11T10:12:27.163Z,1.42
2022-08-11T10:15:17.489Z,1.25
2022-08-11T10:18:07.824Z,1.07
2022-08-11T10:20:38.337Z,1.10
2022-08-11T10:23:24.515Z,1.15
2022-08-11T10:26:10.851Z,1.00
2022-08-11T10:29:02.182Z,1.00
2022-08-11T10:31:57.793Z,1.20
2022-08-11T10:34:29.059Z,1.27
2022-08-11T10:36:57.556Z,1.30
2022-08-11T10:39:27.488Z,1.10
2022-08-11T10:42:30.049Z,1.27
2022-08-11T10:45:05.124Z,1.40
2022-08-11T10:47:44.378Z,1.27
2022-08-11T10:50:34.959Z,0.98
2022-08-11T10:53:21.861Z,1.00
2022-08-11T10:56:08.452Z,1.05
2022-08-11T10:58:50.066Z,0.90
2022-08-11T11:01:19.187Z,1.20
2022-08-11T11:03:47.427Z,0.80
2022-08-11T11:06:37.079Z,1.00
2022-08-11T11:09:07.236Z,1.10
2022-08-11T11:12:01.958Z,1.10
2022-08-11T11:14:56.432Z,0.90
2022-08-11T11:17:57.910Z,1.15
2022-08-11T11:20:34.609Z,1.20
2022-08-11T11:23:21.092Z,1.10
2022-08-11T11:26:06.894Z,1.73
2022-08-11T11:29:01.667Z,1.40
2022-08-11T11:32:07.110Z,1.23
2022-08-11T11:34:53.798Z,1.42
2022-08-11T11:37:24.191Z,1.27
2022-08-11T11:39:53.663Z,1.37
2022-08-11T11:42:22.071Z,1.00
2022-08-11T11:44:49.743Z,1.38
2022-08-11T11:47:21.879Z,1.20
2022-08-11T11:49:50.592Z,0.80
2022-08-11T11:52:20.667Z,1.23
2022-08-11T11:54:50.690Z,1.20
2022-08-11T11:57:38.013Z,1.00
2022-08-11T12:00:33.349Z,0.93
2022-08-11T12:03:04.004Z,0.80
2022-08-11T12:05:35.208Z,1.00
2022-08-11T12:08:33.006Z,1.10
2022-08-11T12:11:26.504Z,1.10
2022-08-11T12:13:54.969Z,0.80
2022-08-11T12:16:33.125Z,1.00
2022-08-11T12:21:32.613Z,0.95
2022-08-11T12:24:20.895Z,0.70
2022-08-11T12:27:16.149Z,0.80
2022-08-11T12:29:44.679Z,0.95
2022-08-11T12:32:12.420Z,0.60
2022-08-11T12:34:39.414Z,0.70
2022-08-11T12:37:13.242Z,0.65
2022-08-11T12:40:37.144Z,0.60
2022-08-11T12:43:22.031Z,0.75
2022-08-11T12:45:58.697Z,0.60
2022-08-11T12:49:01.157Z,0.70
2022-08-11T12:52:12.292Z,1.00
2022-08-11T12:54:42.586Z,0.80
2022-08-11T12:57:37.319Z,0.90
2022-08-11T13:00:27.029Z,0.82
2022-08-11T13:03:13.779Z,0.77
2022-08-11T13:05:44.593Z,0.60
2022-08-11T13:08:14.660Z,0.52
2022-08-11T13:11:01.028Z,0.55
2022-08-11T13:13:53.953Z,0.65
2022-08-11T13:16:17.435Z,0.95
2022-08-11T13:18:45.235Z,1.27
2022-08-11T13:21:20.616Z,0.70
2022-08-11T13:24:01.955Z,0.70
2022-08-11T13:26:49.654Z,0.90
2022-08-11T13:29:23.027Z,0.55
2022-08-11T13:31:51.283Z,0.70
2022-08-11T13:34:20.392Z,0.70
2022-08-11T13:36:52.624Z,0.70
2022-08-11T13:39:24.526Z,0.88
2022-08-11T13:41:53.964Z,0.80
2022-08-11T13:44:25.652Z,0.70
2022-08-11T13:46:56.757Z,0.68
2022-08-11T13:49:24.408Z,0.90
2022-08-11T13:51:52.998Z,1.13
2022-08-11T13:54:26.390Z,0.80
2022-08-11T13:56:58.341Z,1.00
2022-08-11T13:59:31.084Z,0.88
2022-08-11T14:02:22.126Z,0.70
2022-08-11T14:05:02.026Z,0.82
2022-08-11T14:07:37.912Z,0.73
2022-08-11T14:10:08.115Z,0.90
2022-08-11T14:12:56.049Z,1.10
2022-08-11T14:15:32.394Z,0.93
2022-08-11T14:18:17.605Z,0.82
2022-08-11T14:21:06.395Z,1.13
2022-08-11T14:23:38.000Z,1.00
2022-08-11T14:26:27.274Z,1.27
2022-08-11T14:29:03.264Z,1.13
2022-08-11T14:31:33.025Z,1.20
2022-08-11T14:34:04.258Z,1.00
2022-08-11T14:36:35.604Z,1.20
2022-08-11T14:39:07.480Z,0.93
2022-08-11T14:42:10.150Z,1.20
2022-08-11T14:45:03.372Z,1.00
2022-08-11T14:47:34.237Z,0.90
2022-08-11T14:50:10.961Z,1.02
2022-08-11T14:52:45.673Z,1.10
2022-08-11T14:55:32.884Z,1.00
2022-08-11T14:58:02.169Z,1.00
2022-08-11T15:00:31.228Z,1.15
2022-08-11T15:03:12.425Z,1.00
2022-08-11T15:05:56.687Z,1.23
2022-08-11T15:08:56.955Z,1.05
2022-08-11T15:11:49.907Z,0.88
2022-08-11T15:14:36.823Z,0.82
2022-08-11T15:17:08.860Z,0.80
2022-08-11T15:19:40.520Z,1.00
2022-08-11T15:22:28.469Z,1.02
2022-08-11T15:24:57.835Z,1.00
2022-08-11T15:27:45.028Z,1.00
2022-08-11T15:30:33.853Z,1.10
2022-08-11T15:33:27.921Z,1.05
2022-08-11T15:36:15.946Z,1.17
2022-08-11T15:39:00.176Z,1.02
2022-08-11T15:41:58.784Z,0.90
2022-08-11T15:45:03.210Z,0.98
2022-08-11T15:47:38.173Z,2.20
2022-08-11T15:50:11.958Z,1.92
2022-08-11T15:52:50.307Z,2.38
2022-08-11T15:55:19.063Z,1.80
2022-08-11T15:58:07.938Z,1.10
2022-08-11T16:01:03.748Z,0.90
2022-08-11T16:04:09.187Z,1.10
2022-08-11T16:06:49.453Z,1.52
2022-08-11T16:09:22.416Z,1.30
2022-08-11T16:11:51.986Z,1.27
2022-08-11T16:14:41.748Z,1.15
2022-08-11T16:17:14.361Z,1.10
2022-08-11T16:19:44.426Z,1.10
2022-08-11T16:22:14.160Z,1.27
2022-08-11T16:27:04.501Z,1.50
2022-08-11T16:27:39.294Z,2.20
2022-08-11T16:30:07.464Z,1.35
2022-08-11T16:32:37.376Z,1.20
2022-08-11T16:35:28.867Z,1.00
2022-08-11T16:38:15.900Z,1.10
2022-08-11T16:40:44.521Z,1.17
2022-08-11T16:43:34.329Z,1.02
2022-08-11T16:46:24.352Z,2.17
2022-08-11T16:48:55.721Z,1.73
2022-08-11T16:51:23.336Z,1.70
2022-08-11T16:54:04.473Z,1.52
2022-08-11T16:56:36.184Z,1.30
2022-08-11T16:59:16.342Z,1.13
2022-08-11T17:01:45.353Z,1.35
2022-08-11T17:04:55.422Z,1.30
2022-08-11T17:07:51.531Z,1.15
2022-08-11T17:10:52.861Z,1.30
2022-08-11T17:13:29.549Z,1.30
2022-08-11T17:16:13.185Z,1.85
2022-08-11T17:18:51.670Z,1.35
2022-08-11T17:21:59.215Z,1.50
2022-08-11T17:24:28.104Z,1.63
2022-08-11T17:27:00.101Z,1.67
2022-08-11T17:29:53.713Z,1.30
2022-08-11T17:32:56.951Z,1.98
2022-08-11T17:35:34.340Z,1.42
2022-08-11T17:38:17.209Z,1.45
2022-08-11T17:41:18.696Z,2.08
2022-08-11T17:44:10.528Z,1.23
2022-08-11T17:47:01.050Z,1.50
2022-08-11T17:49:37.926Z,1.48
2022-08-11T17:52:38.798Z,1.75
2022-08-11T17:55:51.520Z,1.33
2022-08-11T17:58:33.655Z,1.50
2022-08-11T18:01:08.767Z,1.48
2022-08-11T18:03:40.182Z,1.40
2022-08-11T18:06:12.864Z,2.10
2022-08-11T18:09:03.691Z,2.65
2022-08-11T18:12:09.867Z,3.63
2022-08-11T18:14:59.393Z,9.85
2022-08-11T18:17:45.341Z,12.10
2022-08-11T18:20:31.115Z,10.00
2022-08-11T18:23:18.383Z,10.52
2022-08-11T18:26:07.704Z,11.00
2022-08-11T18:29:04.635Z,10.18
2022-08-11T18:31:56.355Z,9.57
2022-08-11T18:34:49.370Z,8.82
2022-08-11T18:37:38.743Z,9.05
2022-08-11T18:40:35.437Z,7.68
2022-08-11T18:43:27.275Z,7.00
2022-08-11T18:46:19.776Z,5.55
2022-08-11T18:49:15.366Z,6.40
2022-08-11T18:52:06.581Z,4.95
2022-08-11T18:54:55.558Z,4.60
2022-08-11T18:57:53.985Z,3.05
2022-08-11T19:00:42.489Z,4.15
2022-08-11T19:03:31.487Z,3.67
2022-08-11T19:09:30.689Z,3.22
2022-08-11T19:12:19.422Z,2.35
2022-08-11T19:15:08.758Z,2.42
2022-08-11T19:17:57.968Z,2.25
2022-08-11T19:20:46.546Z,2.40
2022-08-11T19:23:35.854Z,2.08
2022-08-11T19:26:22.595Z,1.50
2022-08-11T19:29:09.728Z,1.52
2022-08-11T19:32:17.655Z,1.75
2022-08-11T19:35:04.354Z,1.65
2022-08-11T19:37:51.660Z,1.98
2022-08-11T19:40:38.577Z,1.77
2022-08-11T19:43:26.581Z,1.70
2022-08-11T19:46:16.461Z,1.77
2022-08-11T19:49:05.453Z,1.80
2022-08-11T19:51:53.987Z,1.90
2022-08-11T19:54:44.183Z,1.63
2022-08-11T19:57:37.190Z,1.52
2022-08-11T20:00:32.444Z,1.73
2022-08-11T20:03:20.041Z,2.30
2022-08-11T20:06:08.977Z,2.33
2022-08-11T20:09:02.877Z,1.70
2022-08-11T20:11:58.452Z,1.77
2022-08-11T20:14:48.849Z,1.98
2022-08-11T20:17:35.539Z,1.77
2022-08-11T20:20:26.355Z,1.83
2022-08-11T20:23:13.879Z,1.77
2022-08-11T20:26:14.092Z,1.55
2022-08-11T20:29:09.236Z,1.75
2022-08-11T20:31:55.629Z,1.55
2022-08-11T20:34:42.241Z,1.70
2022-08-11T20:37:30.083Z,1.60
2022-08-11T20:40:17.427Z,1.50
2022-08-11T20:44:05.053Z,1.85
2022-08-11T20:46:21.011Z,1.60
2022-08-11T20:49:09.261Z,1.40
2022-08-11T20:51:57.672Z,1.80
2022-08-11T20:54:46.304Z,1.27
2022-08-11T20:58:01.555Z,1.50
2022-08-11T21:00:43.986Z,1.60
2022-08-11T21:03:36.115Z,1.80
2022-08-11T21:06:33.134Z,1.90
2022-08-11T21:09:23.899Z,1.50
2022-08-11T21:12:30.217Z,2.10
2022-08-11T21:15:47.264Z,1.90
2022-08-11T21:18:28.292Z,1.77
2022-08-11T21:21:18.482Z,1.52
2022-08-11T21:24:06.676Z,1.52
2022-08-11T21:27:03.497Z,1.30
2022-08-11T21:29:53.139Z,1.83
2022-08-11T21:32:41.351Z,1.40
2022-08-11T21:35:30.377Z,2.10
2022-08-11T21:38:17.741Z,2.38
2022-08-11T21:41:05.266Z,1.50
2022-08-11T21:43:52.141Z,1.52
2022-08-11T21:46:40.010Z,1.45
2022-08-11T21:49:26.120Z,1.50
2022-08-11T21:52:11.868Z,1.50
2022-08-11T21:54:59.960Z,1.30
2022-08-11T21:57:47.999Z,1.40
2022-08-11T22:00:35.500Z,1.50
2022-08-11T22:03:22.736Z,1.55
2022-08-11T22:06:09.864Z,1.30
2022-08-11T22:08:55.747Z,1.40
2022-08-11T22:11:41.744Z,1.17
2022-08-11T22:14:27.431Z,1.33
2022-08-11T22:17:12.993Z,1.60
2022-08-11T22:19:59.717Z,1.20
2022-08-11T22:22:52.127Z,1.60
2022-08-11T22:25:50.874Z,1.20
2022-08-11T22:28:39.233Z,1.52
2022-08-11T22:31:27.136Z,1.40
2022-08-11T22:34:12.490Z,1.33
2022-08-11T22:37:00.309Z,1.30
2022-08-11T22:40:00.031Z,1.40
2022-08-11T22:42:48.714Z,1.30
2022-08-11T22:45:34.785Z,1.33
2022-08-11T22:48:23.819Z,1.17
2022-08-11T22:51:10.985Z,1.60
2022-08-11T22:53:59.131Z,1.35
2022-08-11T22:56:49.800Z,1.38
2022-08-11T22:59:37.547Z,1.38
2022-08-11T23:02:25.391Z,1.50
2022-08-11T23:05:11.504Z,1.25
2022-08-11T23:07:58.001Z,1.52
2022-08-11T23:10:45.652Z,1.67
2022-08-11T23:13:32.280Z,1.40
2022-08-11T23:16:17.888Z,1.65
2022-08-11T23:19:04.742Z,1.95
2022-08-11T23:21:52.515Z,1.58
2022-08-11T23:24:39.663Z,1.52
2022-08-11T23:27:27.320Z,1.33
2022-08-11T23:30:16.971Z,1.20
2022-08-11T23:33:07.271Z,1.20
2022-08-11T23:35:57.953Z,1.30
2022-08-11T23:38:47.116Z,1.30
2022-08-11T23:41:33.864Z,1.40
2022-08-11T23:44:24.177Z,1.40
2022-08-11T23:47:13.572Z,1.60
2022-08-11T23:50:00.326Z,1.40
2022-08-11T23:52:47.224Z,1.23
2022-08-11T23:55:33.469Z,1.40
2022-08-11T23:58:19.502Z,1.50
